West Hartford, Connecticut
Current Conditions -  °F | °C
As of 12:53 PM on Sunday 21 Dec 2014 (Local Time) from KHFD Reporting Station
Light Snow Light Snow  
Wind Chill: 27°   Ceiling: 700
Heat Index: 33°   Visibility: 2mi
Dew Point: 31°   Wind: 7mph
Humidity: 92%   Direction: NA
Pressure: 30.29"   Gusts: NA
Location:  41.76°N, 72.74°W
Report Text: KHFD 211753Z VRB06KT 2SM -SN BR OVC007 01/M01 A3029 RMK AO2 SLP256 P0000 60001 T00061006 10006 21006 57011
Loading
Personal Weather Stations






























Interactive Weather Map New forecast layout! Learn more

10-Day Weather Forecast

Advertisements
Track Severe Weather on mobile